createdAt,value
2022-08-03T00:01:30.944Z,19.62
2022-08-03T00:03:57.599Z,19.81
2022-08-03T00:06:24.306Z,19.86
2022-08-03T00:08:51.131Z,19.87
2022-08-03T00:11:18.146Z,19.72
2022-08-03T00:13:44.918Z,19.90
2022-08-03T00:16:11.787Z,19.79
2022-08-03T00:18:38.407Z,19.86
2022-08-03T00:21:05.582Z,19.83
2022-08-03T00:23:51.146Z,19.82
2022-08-03T00:26:20.523Z,19.75
2022-08-03T00:28:47.425Z,19.70
2022-08-03T00:31:14.170Z,19.63
2022-08-03T00:33:58.056Z,19.76
2022-08-03T00:36:26.415Z,19.46
2022-08-03T00:38:53.041Z,19.06
2022-08-03T00:41:19.740Z,19.09
2022-08-03T00:43:47.459Z,19.24
2022-08-03T00:46:18.989Z,19.13
2022-08-03T00:48:52.124Z,19.21
2022-08-03T00:51:20.738Z,18.94
2022-08-03T00:53:47.792Z,19.28
2022-08-03T00:56:15.532Z,19.31
2022-08-03T00:58:44.760Z,19.36
2022-08-03T01:01:12.451Z,19.28
2022-08-03T01:03:40.024Z,19.31
2022-08-03T01:06:43.138Z,19.31
2022-08-03T01:09:23.648Z,19.34
2022-08-03T01:12:01.844Z,19.36
2022-08-03T01:14:53.539Z,19.32
2022-08-03T01:17:35.850Z,19.20
2022-08-03T01:20:11.869Z,18.97
2022-08-03T01:23:10.747Z,18.96
2022-08-03T01:26:06.050Z,19.02
2022-08-03T01:29:04.227Z,18.91
2022-08-03T01:32:59.599Z,18.72
2022-08-03T01:34:39.487Z,18.67
2022-08-03T01:37:09.279Z,18.82
2022-08-03T01:39:40.614Z,18.80
2022-08-03T01:42:11.547Z,18.89
2022-08-03T01:44:41.497Z,18.91
2022-08-03T01:47:10.149Z,19.07
2022-08-03T01:49:43.274Z,18.76
2022-08-03T01:52:12.589Z,18.42
2022-08-03T01:54:45.342Z,18.46
2022-08-03T01:57:14.271Z,18.49
2022-08-03T01:59:43.204Z,18.51
2022-08-03T02:02:29.143Z,18.51
2022-08-03T02:05:01.439Z,18.69
2022-08-03T02:07:30.299Z,18.76
2022-08-03T02:09:59.093Z,18.84
2022-08-03T02:12:28.507Z,18.81
2022-08-03T02:14:56.806Z,18.54
2022-08-03T02:17:39.647Z,18.53
2022-08-03T02:20:10.839Z,18.15
2022-08-03T02:22:40.809Z,17.87
2022-08-03T02:25:09.899Z,18.19
2022-08-03T02:27:43.635Z,18.21
2022-08-03T02:30:12.404Z,18.22
2022-08-03T02:32:41.264Z,18.35
2022-08-03T02:35:12.521Z,18.21
2022-08-03T02:37:49.531Z,18.49
2022-08-03T02:40:19.022Z,18.16
2022-08-03T02:42:47.054Z,18.56
2022-08-03T02:45:16.561Z,18.23
2022-08-03T02:47:53.370Z,18.59
2022-08-03T02:50:24.411Z,18.45
2022-08-03T02:52:52.837Z,18.59
2022-08-03T02:55:22.047Z,18.63
2022-08-03T02:57:49.830Z,18.55
2022-08-03T03:00:27.337Z,18.33
2022-08-03T03:02:58.292Z,18.22
2022-08-03T03:05:52.794Z,17.77
2022-08-03T03:08:18.750Z,18.11
2022-08-03T03:10:48.347Z,18.18
2022-08-03T03:13:22.282Z,18.27
2022-08-03T03:15:49.754Z,18.30
2022-08-03T03:18:21.895Z,17.82
2022-08-03T03:20:50.461Z,18.02
2022-08-03T03:23:17.830Z,18.05
2022-08-03T03:25:46.754Z,18.15
2022-08-03T03:28:13.748Z,18.14
2022-08-03T03:30:40.567Z,18.17
2022-08-03T03:33:07.635Z,18.40
2022-08-03T03:35:38.925Z,18.35
2022-08-03T03:38:07.132Z,18.28
2022-08-03T03:40:35.824Z,18.07
2022-08-03T03:43:03.856Z,17.76
2022-08-03T03:45:31.046Z,17.57
2022-08-03T03:48:00.092Z,17.54
2022-08-03T03:50:28.070Z,17.71
2022-08-03T03:52:54.679Z,17.63
2022-08-03T03:55:21.471Z,17.87
2022-08-03T03:57:48.134Z,17.91
2022-08-03T04:00:16.625Z,17.97
2022-08-03T04:02:43.813Z,17.83
2022-08-03T04:05:29.288Z,17.79
2022-08-03T04:08:24.600Z,17.75
2022-08-03T04:11:30.111Z,17.75
2022-08-03T04:14:16.884Z,17.79
2022-08-03T04:16:49.177Z,17.81
2022-08-03T04:19:23.613Z,17.77
2022-08-03T04:21:57.251Z,17.83
2022-08-03T04:24:27.170Z,17.53
2022-08-03T04:26:55.750Z,17.47
2022-08-03T04:29:23.960Z,17.50
2022-08-03T04:31:51.912Z,17.17
2022-08-03T04:34:18.675Z,17.57
2022-08-03T04:36:50.082Z,17.57
2022-08-03T04:39:23.000Z,17.48
2022-08-03T04:42:07.401Z,17.75
2022-08-03T04:44:41.703Z,17.90
2022-08-03T04:47:08.884Z,17.94
2022-08-03T04:49:38.763Z,17.78
2022-08-03T04:52:08.247Z,17.68
2022-08-03T04:54:50.283Z,17.61
2022-08-03T04:57:22.749Z,17.74
2022-08-03T05:00:02.138Z,17.71
2022-08-03T05:02:31.854Z,17.91
2022-08-03T05:04:58.805Z,17.68
2022-08-03T05:07:25.642Z,17.91
2022-08-03T05:10:01.573Z,17.65
2022-08-03T05:12:32.875Z,18.05
2022-08-03T05:15:00.667Z,18.08
2022-08-03T05:17:28.295Z,17.95
2022-08-03T05:19:55.142Z,17.92
2022-08-03T05:22:22.242Z,18.04
2022-08-03T05:24:49.106Z,18.07
2022-08-03T05:27:21.711Z,18.33
2022-08-03T05:29:50.168Z,18.71
2022-08-03T05:32:18.049Z,19.24
2022-08-03T05:34:45.120Z,19.50
2022-08-03T05:37:11.900Z,19.52
2022-08-03T05:39:38.606Z,19.75
2022-08-03T05:42:05.367Z,19.80
2022-08-03T05:44:32.159Z,20.01
2022-08-03T05:46:59.383Z,20.07
2022-08-03T05:49:26.176Z,19.44
2022-08-03T05:52:00.439Z,19.94
2022-08-03T05:54:56.107Z,19.65
2022-08-03T05:57:23.775Z,19.63
2022-08-03T05:59:57.392Z,19.74
2022-08-03T06:02:27.119Z,19.75
2022-08-03T06:04:54.578Z,20.05
2022-08-03T06:07:21.282Z,20.01
2022-08-03T06:10:33.733Z,20.33
2022-08-03T06:12:37.708Z,20.43
2022-08-03T06:15:05.290Z,20.63
2022-08-03T06:17:37.593Z,20.69
2022-08-03T06:20:05.940Z,21.00
2022-08-03T06:22:32.595Z,21.20
2022-08-03T06:25:03.430Z,21.46
2022-08-03T06:27:37.284Z,21.68
2022-08-03T06:30:05.246Z,21.97
2022-08-03T06:32:39.055Z,22.06
2022-08-03T06:35:07.453Z,22.38
2022-08-03T06:37:50.788Z,22.65
2022-08-03T06:40:28.547Z,22.84
2022-08-03T06:42:56.529Z,22.48
2022-08-03T06:45:23.557Z,23.26
2022-08-03T06:48:01.933Z,23.48
2022-08-03T06:50:28.814Z,23.59
2022-08-03T06:52:55.645Z,23.89
2022-08-03T06:55:22.391Z,24.12
2022-08-03T06:57:49.171Z,24.35
2022-08-03T07:00:16.211Z,24.57
2022-08-03T07:02:42.937Z,24.83
2022-08-03T07:05:10.588Z,25.06
2022-08-03T07:07:37.841Z,25.22
2022-08-03T07:10:05.790Z,25.37
2022-08-03T07:12:33.806Z,25.46
2022-08-03T07:15:02.990Z,25.65
2022-08-03T07:17:34.138Z,25.66
2022-08-03T07:20:04.256Z,25.79
2022-08-03T07:22:31.230Z,26.11
2022-08-03T07:24:58.045Z,26.26
2022-08-03T07:27:26.957Z,26.46
2022-08-03T07:29:54.161Z,26.87
2022-08-03T07:32:20.890Z,26.96
2022-08-03T07:34:47.566Z,27.31
2022-08-03T07:37:14.252Z,27.61
2022-08-03T07:39:40.899Z,27.75
2022-08-03T07:42:07.626Z,27.94
2022-08-03T07:44:34.295Z,28.24
2022-08-03T07:47:03.309Z,28.44
2022-08-03T07:49:30.643Z,28.72
2022-08-03T07:52:16.817Z,29.00
2022-08-03T07:54:43.925Z,29.16
2022-08-03T07:57:10.638Z,28.84
2022-08-03T07:59:56.955Z,29.27
2022-08-03T08:02:26.816Z,29.46
2022-08-03T08:04:53.561Z,29.53
2022-08-03T08:07:20.710Z,29.82
2022-08-03T08:09:47.476Z,29.91
2022-08-03T08:12:15.558Z,29.84
2022-08-03T08:14:45.638Z,29.75
2022-08-03T08:17:13.215Z,30.00
2022-08-03T08:19:41.475Z,30.15
2022-08-03T08:22:13.482Z,30.20
2022-08-03T08:24:44.554Z,30.09
2022-08-03T08:27:12.021Z,30.49
2022-08-03T08:29:47.777Z,30.98
2022-08-03T08:32:22.064Z,31.50
2022-08-03T08:34:48.756Z,31.70
2022-08-03T08:37:15.455Z,31.73
2022-08-03T08:39:42.153Z,31.33
2022-08-03T08:42:10.316Z,31.47
2022-08-03T08:44:57.556Z,32.10
2022-08-03T08:47:50.994Z,32.43
2022-08-03T08:50:28.151Z,32.74
2022-08-03T08:52:56.241Z,32.18
2022-08-03T08:55:23.977Z,32.06
2022-08-03T08:57:55.396Z,32.05
2022-08-03T09:00:22.183Z,32.62
2022-08-03T09:02:49.181Z,32.77
2022-08-03T09:05:27.833Z,32.54
2022-08-03T09:08:05.576Z,32.84
2022-08-03T09:10:34.754Z,33.13
2022-08-03T09:13:01.558Z,33.36
2022-08-03T09:15:32.132Z,33.86
2022-08-03T09:18:00.954Z,34.22
2022-08-03T09:20:33.488Z,34.22
2022-08-03T09:23:19.047Z,34.20
2022-08-03T09:25:58.242Z,34.20
2022-08-03T09:29:00.204Z,34.20
2022-08-03T09:31:36.659Z,34.62
2022-08-03T09:34:09.263Z,34.36
2022-08-03T09:36:45.600Z,33.66
2022-08-03T09:39:15.947Z,33.60
2022-08-03T09:41:48.867Z,34.21
2022-08-03T09:44:16.210Z,34.98
2022-08-03T09:46:55.802Z,35.28
2022-08-03T09:49:23.126Z,35.42
2022-08-03T09:52:32.735Z,35.45
2022-08-03T09:54:37.226Z,35.84
2022-08-03T09:57:04.330Z,36.15
2022-08-03T09:59:32.603Z,36.34
2022-08-03T10:02:00.661Z,36.18
2022-08-03T10:04:27.868Z,35.54
2022-08-03T10:07:09.223Z,35.31
2022-08-03T10:09:37.476Z,35.63
2022-08-03T10:12:12.154Z,35.63
2022-08-03T10:14:41.717Z,36.04
2022-08-03T10:17:09.809Z,36.49
2022-08-03T10:19:36.683Z,36.59
2022-08-03T10:22:10.438Z,36.52
2022-08-03T10:24:39.244Z,36.65
2022-08-03T10:27:07.448Z,36.24
2022-08-03T10:29:38.946Z,35.71
2022-08-03T10:32:19.001Z,35.52
2022-08-03T10:34:47.090Z,34.99
2022-08-03T10:37:16.118Z,34.96
2022-08-03T10:39:54.572Z,35.59
2022-08-03T10:42:23.805Z,36.32
2022-08-03T10:45:16.964Z,36.95
2022-08-03T10:47:44.489Z,37.08
2022-08-03T10:50:14.229Z,36.78
2022-08-03T10:53:03.801Z,36.37
2022-08-03T10:55:52.061Z,36.65
2022-08-03T10:58:37.418Z,36.38
2022-08-03T11:02:01.414Z,37.00
2022-08-03T11:04:29.834Z,37.23
2022-08-03T11:07:15.733Z,36.99
2022-08-03T11:09:48.457Z,36.13
2022-08-03T11:12:33.340Z,36.37
2022-08-03T11:15:04.625Z,36.94
2022-08-03T11:17:46.298Z,37.49
2022-08-03T11:21:07.037Z,37.54
2022-08-03T11:24:03.131Z,37.75
2022-08-03T11:26:33.032Z,37.49
2022-08-03T11:29:31.432Z,37.00
2022-08-03T11:32:40.117Z,36.59
2022-08-03T11:35:14.713Z,36.51
2022-08-03T11:38:03.058Z,36.82
2022-08-03T11:40:40.618Z,37.48
2022-08-03T11:43:26.751Z,37.97
2022-08-03T11:46:07.061Z,37.95
2022-08-03T11:48:33.627Z,37.59
2022-08-03T11:51:01.285Z,37.75
2022-08-03T11:53:28.724Z,37.43
2022-08-03T11:55:59.281Z,37.75
2022-08-03T11:59:02.706Z,37.51
2022-08-03T12:01:24.145Z,37.02
2022-08-03T12:03:51.962Z,37.14
2022-08-03T12:06:19.413Z,37.57
2022-08-03T12:08:47.074Z,37.54
2022-08-03T12:11:17.846Z,37.63
2022-08-03T12:14:45.072Z,37.29
2022-08-03T12:16:35.465Z,37.39
2022-08-03T12:19:04.937Z,37.67
2022-08-03T12:21:32.199Z,37.82
2022-08-03T12:24:04.236Z,37.83
2022-08-03T12:26:44.162Z,38.03
2022-08-03T12:29:23.042Z,38.13
2022-08-03T12:31:49.699Z,38.11
2022-08-03T12:34:16.447Z,37.52
2022-08-03T12:36:56.112Z,37.53
2022-08-03T12:39:25.181Z,37.67
2022-08-03T12:41:55.949Z,37.74
2022-08-03T12:44:34.419Z,37.29
2022-08-03T12:47:03.370Z,37.00
2022-08-03T12:49:45.581Z,36.87
2022-08-03T12:52:12.553Z,37.04
2022-08-03T12:54:39.303Z,37.59
2022-08-03T12:57:08.535Z,37.85
2022-08-03T12:59:53.109Z,38.12
2022-08-03T13:02:23.558Z,38.49
2022-08-03T13:04:52.717Z,38.43
2022-08-03T13:07:20.215Z,38.35
2022-08-03T13:09:48.008Z,37.65
2022-08-03T13:12:21.437Z,37.51
2022-08-03T13:14:54.823Z,37.75
2022-08-03T13:17:21.893Z,37.22
2022-08-03T13:19:49.514Z,36.94
2022-08-03T13:22:18.765Z,37.01
2022-08-03T13:24:47.886Z,37.66
2022-08-03T13:28:01.377Z,38.03
2022-08-03T13:30:01.756Z,37.73
2022-08-03T13:32:28.464Z,37.37
2022-08-03T13:34:55.151Z,37.43
2022-08-03T13:37:22.154Z,37.87
2022-08-03T13:39:59.617Z,37.97
2022-08-03T13:42:29.428Z,37.38
2022-08-03T13:44:56.342Z,37.35
2022-08-03T13:47:23.315Z,37.22
2022-08-03T13:49:54.348Z,37.93
2022-08-03T13:52:34.419Z,38.05
2022-08-03T13:55:05.716Z,37.99
2022-08-03T13:58:05.941Z,37.63
2022-08-03T14:00:27.776Z,37.66
2022-08-03T14:03:16.431Z,37.51
2022-08-03T14:05:44.145Z,37.59
2022-08-03T14:08:12.037Z,37.27
2022-08-03T14:10:44.520Z,37.03
2022-08-03T14:13:12.856Z,37.13
2022-08-03T14:15:43.756Z,37.20
2022-08-03T14:18:28.825Z,37.31
2022-08-03T14:21:06.335Z,37.62
2022-08-03T14:23:35.142Z,37.51
2022-08-03T14:26:01.835Z,37.49
2022-08-03T14:28:28.651Z,37.15
2022-08-03T14:30:56.180Z,37.02
2022-08-03T14:33:23.430Z,36.74
2022-08-03T14:35:51.271Z,36.44
2022-08-03T14:38:18.743Z,36.00
2022-08-03T14:40:46.274Z,36.02
2022-08-03T14:43:13.981Z,36.15
2022-08-03T14:45:41.276Z,36.47
2022-08-03T14:50:33.074Z,36.66
2022-08-03T14:50:55.346Z,36.68
2022-08-03T14:53:22.677Z,36.77
2022-08-03T14:55:51.247Z,36.61
2022-08-03T14:58:27.672Z,36.54
2022-08-03T15:00:55.475Z,36.55
2022-08-03T15:03:24.618Z,36.59
2022-08-03T15:06:10.298Z,36.57
2022-08-03T15:08:36.975Z,36.66
2022-08-03T15:11:03.755Z,36.23
2022-08-03T15:13:31.725Z,35.81
2022-08-03T15:15:58.341Z,35.95
2022-08-03T15:18:25.001Z,36.13
2022-08-03T15:20:51.723Z,36.17
2022-08-03T15:23:18.690Z,36.10
2022-08-03T15:26:29.293Z,36.10
2022-08-03T15:28:33.280Z,36.05
2022-08-03T15:31:00.550Z,35.93
2022-08-03T15:33:27.840Z,35.86
2022-08-03T15:35:54.509Z,35.83
2022-08-03T15:38:25.627Z,35.83
2022-08-03T15:40:56.890Z,35.75
2022-08-03T15:43:23.785Z,35.90
2022-08-03T15:46:12.752Z,35.92
2022-08-03T15:48:37.695Z,35.97
2022-08-03T15:51:05.205Z,35.84
2022-08-03T15:53:32.280Z,35.92
2022-08-03T15:55:59.784Z,35.75
2022-08-03T15:59:10.751Z,35.61
2022-08-03T16:01:19.771Z,35.68
2022-08-03T16:03:47.069Z,35.62
2022-08-03T16:06:13.948Z,35.68
2022-08-03T16:08:40.642Z,35.70
2022-08-03T16:11:07.456Z,35.74
2022-08-03T16:14:13.460Z,38.07
2022-08-03T16:16:20.852Z,41.17
2022-08-03T16:18:47.539Z,42.92
2022-08-03T16:21:16.974Z,43.69
2022-08-03T16:23:47.097Z,44.50
2022-08-03T16:26:14.224Z,44.79
2022-08-03T16:28:40.963Z,44.77
2022-08-03T16:31:09.004Z,44.89
2022-08-03T16:33:36.031Z,44.59
2022-08-03T16:36:03.058Z,44.65
2022-08-03T16:38:30.457Z,44.73
2022-08-03T16:40:57.151Z,44.88
2022-08-03T16:43:24.662Z,45.19
2022-08-03T16:45:51.817Z,45.15
2022-08-03T16:48:18.813Z,45.00
2022-08-03T16:50:46.076Z,45.10
2022-08-03T16:53:16.746Z,45.39
2022-08-03T16:56:10.071Z,45.07
2022-08-03T16:58:42.366Z,44.28
2022-08-03T17:01:22.626Z,44.23
2022-08-03T17:04:02.283Z,44.24
2022-08-03T17:06:34.081Z,44.04
2022-08-03T17:09:03.929Z,43.74
2022-08-03T17:11:37.673Z,44.08
2022-08-03T17:14:09.216Z,44.48
2022-08-03T17:16:38.461Z,44.46
2022-08-03T17:19:07.166Z,44.04
2022-08-03T17:21:39.114Z,44.17
2022-08-03T17:24:19.913Z,44.67
2022-08-03T17:26:51.043Z,45.07
2022-08-03T17:29:23.094Z,45.32
2022-08-03T17:31:53.335Z,45.45
2022-08-03T17:34:21.024Z,44.89
2022-08-03T17:37:27.147Z,44.39
2022-08-03T17:39:58.639Z,44.00
2022-08-03T17:42:30.542Z,44.34
2022-08-03T17:45:02.035Z,44.47
2022-08-03T17:47:42.165Z,44.63
2022-08-03T17:50:24.085Z,43.76
2022-08-03T17:53:07.125Z,40.69
2022-08-03T17:56:38.600Z,37.23
2022-08-03T17:59:51.400Z,35.91
2022-08-03T18:02:48.974Z,35.13
2022-08-03T18:05:21.771Z,34.69
2022-08-03T18:07:59.369Z,34.43
2022-08-03T18:10:34.269Z,34.21
2022-08-03T18:13:15.253Z,34.05
2022-08-03T18:16:02.240Z,33.87
2022-08-03T18:18:40.454Z,33.75
2022-08-03T18:22:02.273Z,33.62
2022-08-03T18:24:32.394Z,33.47
2022-08-03T18:27:02.379Z,33.28
2022-08-03T18:29:30.536Z,33.23
2022-08-03T18:32:06.074Z,32.94
2022-08-03T18:34:36.792Z,32.83
2022-08-03T18:37:08.437Z,32.91
2022-08-03T18:39:50.171Z,32.79
2022-08-03T18:42:25.818Z,32.66
2022-08-03T18:44:56.245Z,32.37
2022-08-03T18:47:50.917Z,31.91
2022-08-03T18:50:36.724Z,31.59
2022-08-03T18:53:19.346Z,31.21
2022-08-03T18:56:01.888Z,30.89
2022-08-03T18:59:04.940Z,30.59
2022-08-03T19:01:58.332Z,30.35
2022-08-03T19:04:46.042Z,29.84
2022-08-03T19:07:17.753Z,30.05
2022-08-03T19:09:54.312Z,29.89
2022-08-03T19:12:50.262Z,29.86
2022-08-03T19:15:36.086Z,29.47
2022-08-03T19:18:33.175Z,29.25
2022-08-03T19:21:01.049Z,29.27
2022-08-03T19:23:33.957Z,29.10
2022-08-03T19:26:02.471Z,28.94
2022-08-03T19:28:30.267Z,28.93
2022-08-03T19:31:02.686Z,28.87
2022-08-03T19:33:56.029Z,28.82
2022-08-03T19:36:26.340Z,28.88
2022-08-03T19:38:57.536Z,28.86
2022-08-03T19:41:31.104Z,28.74
2022-08-03T19:44:11.498Z,28.73
2022-08-03T19:46:54.044Z,28.56
2022-08-03T19:50:04.736Z,28.28
2022-08-03T19:52:14.674Z,28.38
2022-08-03T19:54:53.970Z,28.35
2022-08-03T19:57:24.615Z,28.29
2022-08-03T19:59:53.142Z,28.22
2022-08-03T20:02:26.400Z,28.24
2022-08-03T20:04:57.772Z,27.94
2022-08-03T20:07:29.308Z,27.99
2022-08-03T20:09:59.556Z,27.79
2022-08-03T20:12:29.558Z,27.59
2022-08-03T20:14:57.718Z,27.54
2022-08-03T20:17:31.274Z,27.48
2022-08-03T20:20:12.792Z,27.51
2022-08-03T20:22:43.291Z,27.50
2022-08-03T20:25:16.256Z,27.50
2022-08-03T20:28:06.752Z,27.43
2022-08-03T20:30:35.573Z,27.27
2022-08-03T20:33:02.396Z,27.06
2022-08-03T20:35:30.320Z,27.07
2022-08-03T20:37:58.075Z,26.99
2022-08-03T20:40:27.450Z,26.62
2022-08-03T20:42:55.318Z,26.84
2022-08-03T20:45:59.734Z,26.62
2022-08-03T20:48:10.257Z,26.75
2022-08-03T20:50:39.845Z,26.65
2022-08-03T20:53:07.789Z,26.62
2022-08-03T20:55:48.231Z,26.59
2022-08-03T20:58:27.053Z,26.51
2022-08-03T21:00:55.709Z,26.47
2022-08-03T21:03:22.425Z,26.27
2022-08-03T21:05:53.666Z,26.28
2022-08-03T21:08:22.485Z,26.19
2022-08-03T21:10:52.385Z,26.05
2022-08-03T21:13:42.029Z,26.06
2022-08-03T21:16:14.987Z,25.99
2022-08-03T21:18:49.478Z,25.92
2022-08-03T21:21:19.171Z,25.87
2022-08-03T21:23:49.889Z,25.41
2022-08-03T21:26:21.852Z,25.62
2022-08-03T21:28:50.712Z,25.71
2022-08-03T21:31:25.763Z,25.68
2022-08-03T21:33:56.534Z,25.58
2022-08-03T21:36:25.169Z,25.59
2022-08-03T21:38:56.609Z,25.45
2022-08-03T21:41:25.896Z,25.37
2022-08-03T21:43:52.630Z,25.01
2022-08-03T21:46:20.289Z,24.69
2022-08-03T21:48:51.167Z,24.79
2022-08-03T21:51:20.046Z,24.57
2022-08-03T21:54:02.394Z,24.61
2022-08-03T21:56:41.672Z,24.87
2022-08-03T21:59:16.416Z,24.90
2022-08-03T22:01:45.523Z,24.90
2022-08-03T22:04:53.305Z,24.87
2022-08-03T22:07:07.688Z,24.84
2022-08-03T22:09:35.395Z,24.62
2022-08-03T22:12:02.164Z,24.56
2022-08-03T22:14:29.840Z,24.50
2022-08-03T22:16:56.661Z,24.57
2022-08-03T22:19:23.327Z,24.42
2022-08-03T22:21:50.330Z,24.28
2022-08-03T22:24:23.902Z,24.11
2022-08-03T22:27:10.061Z,24.06
2022-08-03T22:29:39.692Z,24.13
2022-08-03T22:32:06.700Z,23.86
2022-08-03T22:34:36.998Z,23.80
2022-08-03T22:37:04.982Z,23.67
2022-08-03T22:39:32.266Z,23.66
2022-08-03T22:41:59.950Z,23.55
2022-08-03T22:44:27.670Z,23.54
2022-08-03T22:46:55.560Z,23.57
2022-08-03T22:49:23.690Z,23.47
2022-08-03T22:51:53.660Z,23.35
2022-08-03T22:54:20.878Z,23.34
2022-08-03T22:56:49.215Z,23.11
2022-08-03T22:59:40.859Z,23.47
2022-08-03T23:02:20.021Z,23.66
2022-08-03T23:04:56.976Z,23.83
2022-08-03T23:07:32.763Z,23.88
2022-08-03T23:10:01.363Z,23.89
2022-08-03T23:12:30.347Z,23.83
2022-08-03T23:15:01.584Z,23.79
2022-08-03T23:17:30.944Z,23.73
2022-08-03T23:20:04.332Z,23.83
2022-08-03T23:22:34.778Z,23.79
2022-08-03T23:25:03.837Z,23.76
2022-08-03T23:27:32.687Z,23.70
2022-08-03T23:30:01.244Z,23.80
2022-08-03T23:32:29.913Z,23.70
2022-08-03T23:35:18.428Z,23.74
2022-08-03T23:38:10.729Z,23.47
2022-08-03T23:40:33.902Z,23.13
2022-08-03T23:43:02.659Z,23.24
2022-08-03T23:45:34.684Z,23.23
2022-08-03T23:48:01.438Z,23.23
2022-08-03T23:50:32.260Z,23.19
2022-08-03T23:53:21.142Z,23.19
2022-08-03T23:56:33.623Z,23.17
2022-08-03T23:59:05.985Z,23.12
